Meteorología y climatología de Navarra
Datos de la estación - Meteo Navarra

Estación de Bera (Larrategaña) GN

Altitud 306 m.


Datos desde el 11/01/2019 hasta el 12/01/2019 en horario solar
Los datos son PROVISIONALES

Anterior Página 1 de 1 Siguiente Descargar: Formato para Excel 2000 o superior   Formato csv   Formato para OpenOffice Calc
Fecha Temperatura Humedad relativa Radiación global Insolación Precipitación Vel. viento 10 m Vel. viento 10 m Dir. viento 10 m
ºC % W/m² s l/m² m/s km/h º
11/01/2019 0:00 0.4 80 0.0 0 0.0 1.7 6.2 327
11/01/2019 0:10 0.4 81 0.0 0 0.0 2.1 7.6 325
11/01/2019 0:20 0.3 82 0.0 0 0.0 1.7 6.1 325
11/01/2019 0:30 0.3 82 0.0 0 0.0 1.6 5.8 317
11/01/2019 0:40 0.3 82 0.0 0 0.0 0.8 2.7 325
11/01/2019 0:50 0.2 83 0.0 0 0.0 0.9 3.2 34
11/01/2019 1:00 0.5 81 0.0 0 0.0 1.2 4.1 357
11/01/2019 1:10 0.5 81 0.0 0 0.0 2.0 7.1 30
11/01/2019 1:20 0.4 81 0.0 0 0.0 1.3 4.8 35
11/01/2019 1:30 0.4 81 0.0 0 0.0 1.8 6.4 36
11/01/2019 1:40 0.4 81 0.0 0 0.0 2.3 8.4 26
11/01/2019 1:50 0.3 81 0.0 0 0.0 2.2 7.8 35
11/01/2019 2:00 0.3 80 0.0 0 0.0 1.5 5.2 34
11/01/2019 2:10 0.3 81 0.0 0 0.0 1.1 4.0 25
11/01/2019 2:20 0.2 81 0.0 0 0.0 0.6 2.1 356
11/01/2019 2:30 0.1 81 0.0 0 0.0 1.2 4.3 347
11/01/2019 2:40 -0.0 82 0.0 0 0.0 0.6 2.1 12
11/01/2019 2:50 -0.3 83 0.0 0 0.0 0.2 0.5 309
11/01/2019 3:00 -0.3 83 0.0 0 0.0 0.1 0.2 201
11/01/2019 3:10 -0.1 81 0.0 0 0.0 0.4 1.5 275
11/01/2019 3:20 -0.3 82 0.0 0 0.0 0.5 1.6 267
11/01/2019 3:30 -0.6 85 0.0 0 0.0 0.5 1.9 273
11/01/2019 3:40 -1.0 88 0.0 0 0.0 0.7 2.6 251
11/01/2019 3:50 -1.0 88 0.0 0 0.0 1.2 4.2 271
11/01/2019 4:00 -0.7 87 0.0 0 0.0 1.2 4.2 236
11/01/2019 4:10 -0.8 88 0.0 0 0.0 0.9 3.2 241
11/01/2019 4:20 -0.9 89 0.0 0 0.0 0.8 3.0 223
11/01/2019 4:30 -1.0 89 0.0 0 0.0 0.7 2.5 244
11/01/2019 4:40 -1.1 90 0.0 0 0.0 0.7 2.4 221
11/01/2019 4:50 -1.1 90 0.0 0 0.0 0.7 2.4 217
11/01/2019 5:00 -1.1 90 0.0 0 0.0 1.2 4.2 221
11/01/2019 5:10 -1.3 91 0.0 0 0.0 1.2 4.2 230
11/01/2019 5:20 -1.2 90 0.0 0 0.0 1.1 4.0 233
11/01/2019 5:30 -1.1 90 0.0 0 0.0 0.7 2.6 228
11/01/2019 5:40 -1.2 90 0.0 0 0.0 1.0 3.7 223
11/01/2019 5:50 -1.1 90 0.0 0 0.0 0.9 3.1 214
11/01/2019 6:00 -1.3 91 0.0 0 0.0 0.7 2.6 219
11/01/2019 6:10 -1.1 90 0.0 0 0.0 0.9 3.3 205
11/01/2019 6:20 -1.1 90 0.0 0 0.0 0.8 2.8 212
11/01/2019 6:30 -1.1 89 0.0 0 0.0 0.9 3.2 220
11/01/2019 6:40 -1.0 88 0.0 0 0.0 1.1 4.0 239
11/01/2019 6:50 -1.0 88 0.0 0 0.0 0.7 2.6 227
11/01/2019 7:00 -0.9 88 0.0 0 0.0 0.9 3.2 242
11/01/2019 7:10 -1.1 88 0.0 0 0.0 0.8 2.8 236
11/01/2019 7:20 -1.5 90 0.0 0 0.0 1.1 4.0 227
11/01/2019 7:30 -1.9 93 0.0 0 0.0 1.3 4.6 220
11/01/2019 7:40 -1.8 94 0.0 0 0.0 1.0 3.6 210
11/01/2019 7:50 -1.5 92 0.0 0 0.0 0.8 2.8 204
11/01/2019 8:00 -0.9 88 0.0 0 0.0 0.8 2.8 210
11/01/2019 8:10 -0.7 86 2.9 0 0.0 1.0 3.7 226
11/01/2019 8:20 -0.7 87 17.7 0 0.0 1.1 3.8 229
11/01/2019 8:30 -0.7 87 22.8 0 0.0 1.0 3.6 226
11/01/2019 8:40 -0.5 86 30.4 0 0.0 0.8 2.9 227
11/01/2019 8:50 -0.3 86 40.9 0 0.0 0.7 2.7 217
11/01/2019 9:00 -0.3 86 49.2 0 0.0 0.8 2.9 226
11/01/2019 9:10 -0.1 85 63.7 0 0.0 0.8 3.0 210
11/01/2019 9:20 0.1 84 74.8 0 0.0 0.9 3.1 222
11/01/2019 9:30 0.3 84 81.8 0 0.0 0.7 2.4 226
11/01/2019 9:40 0.5 84 94.1 0 0.0 0.7 2.6 227
11/01/2019 9:50 0.6 84 116.6 0 0.0 0.7 2.5 238
11/01/2019 10:00 0.9 84 119.6 0 0.0 0.4 1.4 221
11/01/2019 10:10 1.1 82 123.3 0 0.0 0.7 2.4 227
11/01/2019 10:20 1.1 81 131.7 0 0.0 0.7 2.6 224
11/01/2019 10:30 1.3 82 152.1 0 0.0 0.9 3.2 219
11/01/2019 10:40 1.4 83 165.7 0 0.0 1.0 3.5 234
11/01/2019 10:50 1.6 84 174.7 0 0.0 0.8 2.8 243
11/01/2019 11:00 2.1 79 198.6 216 0.0 0.3 1.2 227
11/01/2019 11:10 2.7 78 228.2 600 0.0 0.9 3.3 222
11/01/2019 11:20 2.6 75 252.0 600 0.0 0.8 2.7 233
11/01/2019 11:30 3.1 75 272.8 600 0.0 0.4 1.5 233
11/01/2019 11:40 3.5 77 295.5 600 0.0 0.6 2.2 114
11/01/2019 11:50 3.4 73 297.2 554 0.0 0.6 2.2 31
11/01/2019 12:00 3.7 72 412.1 534 0.0 1.3 4.8 65
11/01/2019 12:10 3.6 69 449.2 578 0.0 1.9 6.8 49
11/01/2019 12:20 3.8 65 507.9 600 0.0 2.9 10.3 59
11/01/2019 12:30 3.8 60 386.2 552 0.0 2.9 10.3 59
11/01/2019 12:40 4.2 51 450.7 566 0.0 3.1 11.1 65
11/01/2019 12:50 4.8 48 463.3 600 0.0 2.4 8.7 72
11/01/2019 13:00 4.7 45 441.7 600 0.0 2.9 10.5 57
11/01/2019 13:10 4.6 43 430.8 600 0.0 3.8 13.8 63
11/01/2019 13:20 4.6 45 423.2 600 0.0 4.2 15.2 53
11/01/2019 13:30 4.6 44 419.9 600 0.0 4.4 15.8 68
11/01/2019 13:40 4.8 48 409.8 600 0.0 4.2 15.0 71
11/01/2019 13:50 4.5 50 382.3 600 0.0 4.1 14.8 62
11/01/2019 14:00 4.6 50 367.1 600 0.0 4.5 16.1 66
11/01/2019 14:10 4.6 49 347.1 600 0.0 4.2 15.2 64
11/01/2019 14:20 4.7 49 329.5 600 0.0 4.5 16.3 64
11/01/2019 14:30 4.7 48 310.2 600 0.0 4.0 14.4 59
11/01/2019 14:40 4.7 49 290.6 600 0.0 4.2 15.2 70
11/01/2019 14:50 4.7 47 269.0 600 0.0 4.4 15.8 68
11/01/2019 15:00 4.6 48 248.4 600 0.0 4.1 14.8 66
11/01/2019 15:10 4.7 50 225.7 600 0.0 3.8 13.8 63
11/01/2019 15:20 4.6 47 201.5 600 0.0 3.4 12.3 60
11/01/2019 15:30 4.4 47 176.3 600 0.0 3.9 14.1 63
11/01/2019 15:40 4.4 48 152.1 600 0.0 3.5 12.7 65
11/01/2019 15:50 4.3 50 127.1 600 0.0 3.2 11.7 65
11/01/2019 16:00 4.2 52 102.0 600 0.0 3.1 11.0 65
11/01/2019 16:10 4.1 53 77.2 600 0.0 3.4 12.3 69
11/01/2019 16:20 4.0 54 53.8 600 0.0 3.2 11.4 64
11/01/2019 16:30 3.8 56 28.0 300 0.0 2.8 10.0 62
11/01/2019 16:40 3.5 57 0.0 0 0.0 2.5 9.1 55
11/01/2019 16:50 3.3 56 0.0 0 0.0 2.4 8.7 58
11/01/2019 17:00 3.2 57 0.0 0 0.0 1.6 5.9 33
11/01/2019 17:10 3.4 59 0.0 0 0.0 1.4 5.0 9
11/01/2019 17:20 3.3 65 0.0 0 0.0 1.4 4.9 333
11/01/2019 17:30 3.1 66 0.0 0 0.0 1.3 4.7 332
11/01/2019 17:40 3.2 68 0.0 0 0.0 1.1 3.8 352
11/01/2019 17:50 3.2 68 0.0 0 0.0 0.5 1.9 23
11/01/2019 18:00 3.3 66 0.0 0 0.0 0.2 0.6 63
11/01/2019 18:10 3.3 64 0.0 0 0.0 0.4 1.4 226
11/01/2019 18:20 2.8 68 0.0 0 0.0 0.9 3.2 240
11/01/2019 18:30 2.8 67 0.0 0 0.0 0.6 2.2 248
11/01/2019 18:40 2.9 69 0.0 0 0.0 0.7 2.4 234
11/01/2019 18:50 3.0 69 0.0 0 0.0 0.3 0.9 278
11/01/2019 19:00 3.0 67 0.0 0 0.0 0.7 2.6 351
11/01/2019 19:10 3.0 69 0.0 0 0.0 0.8 3.0 325
11/01/2019 19:20 3.1 70 0.0 0 0.0 0.7 2.4 306
11/01/2019 19:30 2.8 69 0.0 0 0.0 0.5 1.9 234
11/01/2019 19:40 2.6 70 0.0 0 0.0 0.8 2.7 233
11/01/2019 19:50 2.7 69 0.0 0 0.0 0.7 2.6 216
11/01/2019 20:00 2.8 69 0.0 0 0.0 0.9 3.1 245
11/01/2019 20:10 2.8 69 0.0 0 0.0 0.3 0.9 245
11/01/2019 20:20 2.7 71 0.0 0 0.0 0.6 2.2 225
11/01/2019 20:30 2.3 74 0.0 0 0.0 0.7 2.4 241
11/01/2019 20:40 2.5 69 0.0 0 0.0 0.7 2.6 233
11/01/2019 20:50 2.6 67 0.0 0 0.0 0.2 0.8 243
11/01/2019 21:00 2.8 67 0.0 0 0.0 0.0 0.0 0
11/01/2019 21:10 2.7 67 0.0 0 0.0 0.0 0.1 350
11/01/2019 21:20 2.8 67 0.0 0 0.0 0.4 1.6 129
11/01/2019 21:30 2.9 68 0.0 0 0.0 0.7 2.6 208
11/01/2019 21:40 2.7 69 0.0 0 0.0 1.0 3.5 240
11/01/2019 21:50 2.6 69 0.0 0 0.0 0.5 1.7 216
11/01/2019 22:00 2.7 68 0.0 0 0.0 0.7 2.5 177
11/01/2019 22:10 2.6 69 0.0 0 0.0 0.8 2.7 203
11/01/2019 22:20 2.6 69 0.0 0 0.0 0.6 2.2 213
11/01/2019 22:30 2.3 70 0.0 0 0.0 0.3 0.9 247
11/01/2019 22:40 2.4 70 0.0 0 0.0 0.6 2.3 359
11/01/2019 22:50 2.4 69 0.0 0 0.0 0.2 0.8 307
11/01/2019 23:00 2.7 68 0.0 0 0.0 0.5 1.8 226
11/01/2019 23:10 2.4 70 0.0 0 0.0 1.0 3.4 231
11/01/2019 23:20 2.2 72 0.0 0 0.0 1.0 3.7 233
11/01/2019 23:30 2.3 70 0.0 0 0.0 0.9 3.1 228
11/01/2019 23:40 2.5 67 0.0 0 0.0 0.9 3.3 232
11/01/2019 23:50 2.6 67 0.0 0 0.0 0.7 2.6 231
Anterior Página 1 de 1 Siguiente

NOTA: Tipo de datos según el color:
   - Valores diarios o 10 minutos correctos
   - Valores diarios calculados a partir de un número de datos 10 minutos menor que 144 y mayor que 120, o de un número de datos semihorarios menor que 48 y mayor que 40 (caso de las estaciones de Riegos de Navarra y del MARM)
   - Valores diez minutos estimados


Contacto        Enlaces        Aviso legal